Detall de PIREP

Printer-friendly versionPDF version

[2010/12/27 15:59:00]
Flight IATA:CT1004
Pilot Number:042
Company ICAO:CAT
Aircraft Type:B763/F
PAX:180
Departing Airport: LEAL
Destination Airport: DTTA
Alternate Airport:DABB
Online: VATSIM
Route:MITOS UN851 IZA UM134 ANB UA411 KEMIR
Flight Level:FL340
No Slew and time accel
No pause
Crash detect
Detect pilot in Cockpit between each 30 and 45 minutes
15:59 Zero fuel Weight: 244977 Lbs, Fuel Weight: 161303 Lbs
15:59 VATSIM:LEAL 271530Z 19005KT 160V230 CAVOK 12/06 Q1021 NOSIG
15:59 VATSIM:DTTA 271530Z 30012KT 9999 SCT023TCU SCT086 13/07 Q1018 NOSIG
15:59 VOICE CATALONIAN/X-MAS CHARTER
16:04 Parking Brakes off
16:10 Take-off
16:10 Take off Weight: 403606 Lbs
16:10 Wind: 205 @ 005 Knots Heading: 278
16:10 POS N38 16 58 W000 33 48
16:10 Gear Up: 183 Knots
16:10 Flaps:3 at 183 Knots
16:10 Flaps:2 at 164 Knots
16:11 Flaps:1 at 221 Knots
16:11 Flaps:0 at 240 Knots
16:25 Wind:293@037 Knots Heading: 098 Ground Speed: 510 Knots Altitude 28412 ft
16:28 TOC
16:28 Fuel Weight: 149760 Lb
16:40 Wind:337@038 Knots Heading: 097 Ground Speed: 468 Knots Altitude 36282 ft
16:46 TOD
16:46 Fuel Weight: 145845 Lb
16:55 Wind:352@060 Knots Heading: 095 Ground Speed: 474 Knots Altitude 30265 ft
17:10 Wind:359@075 Knots Heading: 080 Ground Speed: 439 Knots Altitude 28179 ft
17:25 Wind:002@028 Knots Heading: 045 Ground Speed: 290 Knots Altitude 10436 ft
17:27 Flaps:1 at 239 Knots
17:29 Flaps:2 at 217 Knots
17:30 Flaps:3 at 192 Knots
17:40 Wind:290@008 Knots Heading: 183 Ground Speed: 189 Knots Altitude 3139 ft
17:42 Gear Down: 169 Knots
17:42 Flaps:4 at 169 Knots
17:42 Flaps:5 at 165 Knots
17:45 Flaps:6 at 162 Knots
17:48 TouchDown:Rate -163 ft/min Speed: 136 Knots
17:49 VATSIM:DTTA 271630Z 29008KT 260V320 9999 SCT023TCU BKN086 13/07 Q1019 NOSIG
17:49 Land
17:49 Wind:283@008 Knots
17:49 Heading: 291
17:49 Flight Duration: 01:39
17:49 Landing Weight: 379005 Lbs
17:49 POS N36 51 01 E010 13 50
17:52 Parking brakes on
17:52 Block to Block Duration: 01:48
17:52 Final Fuel: 133304 Lbls
17:52 Spent Fuel: 27998 Lbls
17:52 Flight Length: 607 NM
17:52 TOD Land Length: 340 NM

Exportar CSV

Powered by Drupal - Modified by Danger4k